sensor_id;sensor_type;location;lat;lon;timestamp;temperature;humidity
3940;DHT22;1984;48.312;9.244;2022-07-29T00:00:14;17.40;99.90
3940;DHT22;1984;48.312;9.244;2022-07-29T00:02:40;17.40;99.90
3940;DHT22;1984;48.312;9.244;2022-07-29T00:05:07;17.50;99.90
3940;DHT22;1984;48.312;9.244;2022-07-29T00:07:33;17.50;99.90
3940;DHT22;1984;48.312;9.244;2022-07-29T00:09:59;17.50;99.90
3940;DHT22;1984;48.312;9.244;2022-07-29T00:12:25;17.50;99.90
3940;DHT22;1984;48.312;9.244;2022-07-29T00:14:50;17.50;99.90
3940;DHT22;1984;48.312;9.244;2022-07-29T00:17:16;17.50;99.90
3940;DHT22;1984;48.312;9.244;2022-07-29T00:19:42;17.60;99.90
3940;DHT22;1984;48.312;9.244;2022-07-29T00:22:07;17.60;99.90
3940;DHT22;1984;48.312;9.244;2022-07-29T00:24:33;17.60;99.90
3940;DHT22;1984;48.312;9.244;2022-07-29T00:26:58;17.60;99.90
3940;DHT22;1984;48.312;9.244;2022-07-29T00:29:24;17.50;99.90
3940;DHT22;1984;48.312;9.244;2022-07-29T00:31:49;17.50;99.90
3940;DHT22;1984;48.312;9.244;2022-07-29T00:34:15;17.50;99.90
3940;DHT22;1984;48.312;9.244;2022-07-29T00:36:59;17.50;99.90
3940;DHT22;1984;48.312;9.244;2022-07-29T00:39:25;17.40;99.90
3940;DHT22;1984;48.312;9.244;2022-07-29T00:41:50;17.40;99.90
3940;DHT22;1984;48.312;9.244;2022-07-29T00:44:16;17.40;99.90
3940;DHT22;1984;48.312;9.244;2022-07-29T00:46:41;17.30;99.90
3940;DHT22;1984;48.312;9.244;2022-07-29T00:49:07;17.40;99.90
3940;DHT22;1984;48.312;9.244;2022-07-29T00:51:36;17.40;99.90
3940;DHT22;1984;48.312;9.244;2022-07-29T00:54:03;17.30;99.90
3940;DHT22;1984;48.312;9.244;2022-07-29T00:56:32;17.30;99.90
3940;DHT22;1984;48.312;9.244;2022-07-29T00:58:59;17.30;99.90
3940;DHT22;1984;48.312;9.244;2022-07-29T01:01:25;17.30;99.90
3940;DHT22;1984;48.312;9.244;2022-07-29T01:03:51;17.30;99.90
3940;DHT22;1984;48.312;9.244;2022-07-29T01:06:18;17.30;99.90
3940;DHT22;1984;48.312;9.244;2022-07-29T01:08:45;17.20;99.90
3940;DHT22;1984;48.312;9.244;2022-07-29T01:11:13;17.20;99.90
3940;DHT22;1984;48.312;9.244;2022-07-29T01:13:39;17.20;99.90
3940;DHT22;1984;48.312;9.244;2022-07-29T01:16:14;17.20;99.90
3940;DHT22;1984;48.312;9.244;2022-07-29T01:18:44;17.20;99.90
3940;DHT22;1984;48.312;9.244;2022-07-29T01:24:20;17.30;99.90
3940;DHT22;1984;48.312;9.244;2022-07-29T01:26:54;17.20;99.90
3940;DHT22;1984;48.312;9.244;2022-07-29T01:29:30;17.20;99.90
3940;DHT22;1984;48.312;9.244;2022-07-29T01:35:16;17.20;99.90
3940;DHT22;1984;48.312;9.244;2022-07-29T01:37:43;17.20;99.90
3940;DHT22;1984;48.312;9.244;2022-07-29T01:42:45;17.00;99.90
3940;DHT22;1984;48.312;9.244;2022-07-29T01:45:39;16.90;99.90
3940;DHT22;1984;48.312;9.244;2022-07-29T01:48:15;16.90;99.90
3940;DHT22;1984;48.312;9.244;2022-07-29T01:51:04;16.80;99.90
3940;DHT22;1984;48.312;9.244;2022-07-29T01:53:38;16.80;99.90
3940;DHT22;1984;48.312;9.244;2022-07-29T01:56:09;16.80;99.90
3940;DHT22;1984;48.312;9.244;2022-07-29T01:58:37;16.90;99.90
3940;DHT22;1984;48.312;9.244;2022-07-29T02:01:04;16.90;99.90
3940;DHT22;1984;48.312;9.244;2022-07-29T02:03:33;17.00;99.90
3940;DHT22;1984;48.312;9.244;2022-07-29T02:06:02;17.10;99.90
3940;DHT22;1984;48.312;9.244;2022-07-29T02:08:29;17.10;99.90
3940;DHT22;1984;48.312;9.244;2022-07-29T02:10:55;17.10;99.90
3940;DHT22;1984;48.312;9.244;2022-07-29T02:13:23;17.10;99.90
3940;DHT22;1984;48.312;9.244;2022-07-29T02:15:51;17.10;99.90
3940;DHT22;1984;48.312;9.244;2022-07-29T02:18:20;16.90;99.90
3940;DHT22;1984;48.312;9.244;2022-07-29T02:20:50;16.90;99.90
3940;DHT22;1984;48.312;9.244;2022-07-29T02:23:23;16.80;99.90
3940;DHT22;1984;48.312;9.244;2022-07-29T02:25:52;16.80;99.90
3940;DHT22;1984;48.312;9.244;2022-07-29T02:28:19;16.80;99.90
3940;DHT22;1984;48.312;9.244;2022-07-29T02:30:46;16.80;99.90
3940;DHT22;1984;48.312;9.244;2022-07-29T02:33:15;16.70;99.90
3940;DHT22;1984;48.312;9.244;2022-07-29T02:35:47;16.70;99.90
3940;DHT22;1984;48.312;9.244;2022-07-29T02:38:15;16.60;99.90
3940;DHT22;1984;48.312;9.244;2022-07-29T02:41:03;16.50;99.90
3940;DHT22;1984;48.312;9.244;2022-07-29T02:43:30;16.60;99.90
3940;DHT22;1984;48.312;9.244;2022-07-29T02:45:58;16.60;99.90
3940;DHT22;1984;48.312;9.244;2022-07-29T02:48:36;16.60;99.90
3940;DHT22;1984;48.312;9.244;2022-07-29T02:51:09;16.70;99.90
3940;DHT22;1984;48.312;9.244;2022-07-29T02:53:37;16.70;99.90
3940;DHT22;1984;48.312;9.244;2022-07-29T02:56:11;16.80;99.90
3940;DHT22;1984;48.312;9.244;2022-07-29T02:58:41;16.80;99.90
3940;DHT22;1984;48.312;9.244;2022-07-29T03:01:16;16.80;99.90
3940;DHT22;1984;48.312;9.244;2022-07-29T03:03:44;16.80;99.90
3940;DHT22;1984;48.312;9.244;2022-07-29T03:06:13;16.70;99.90
3940;DHT22;1984;48.312;9.244;2022-07-29T03:08:40;16.60;99.90
3940;DHT22;1984;48.312;9.244;2022-07-29T03:11:07;16.60;99.90
3940;DHT22;1984;48.312;9.244;2022-07-29T03:13:34;16.60;99.90
3940;DHT22;1984;48.312;9.244;2022-07-29T03:16:01;16.60;99.90
3940;DHT22;1984;48.312;9.244;2022-07-29T03:18:26;16.60;99.90
3940;DHT22;1984;48.312;9.244;2022-07-29T03:20:52;16.70;99.90
3940;DHT22;1984;48.312;9.244;2022-07-29T03:23:20;16.70;99.90
3940;DHT22;1984;48.312;9.244;2022-07-29T03:25:46;16.70;99.90
3940;DHT22;1984;48.312;9.244;2022-07-29T03:28:13;16.70;99.90
3940;DHT22;1984;48.312;9.244;2022-07-29T03:30:39;16.70;99.90
3940;DHT22;1984;48.312;9.244;2022-07-29T03:33:04;16.70;99.90
3940;DHT22;1984;48.312;9.244;2022-07-29T03:35:30;16.80;99.90
3940;DHT22;1984;48.312;9.244;2022-07-29T03:37:57;16.70;99.90
3940;DHT22;1984;48.312;9.244;2022-07-29T03:40:30;16.60;99.90
3940;DHT22;1984;48.312;9.244;2022-07-29T03:42:57;16.60;99.90
3940;DHT22;1984;48.312;9.244;2022-07-29T03:45:24;16.50;99.90
3940;DHT22;1984;48.312;9.244;2022-07-29T03:47:55;16.50;99.90
3940;DHT22;1984;48.312;9.244;2022-07-29T03:50:22;16.50;99.90
3940;DHT22;1984;48.312;9.244;2022-07-29T03:52:48;16.50;99.90
3940;DHT22;1984;48.312;9.244;2022-07-29T03:55:14;16.50;99.90
3940;DHT22;1984;48.312;9.244;2022-07-29T03:57:41;16.50;99.90
3940;DHT22;1984;48.312;9.244;2022-07-29T04:00:08;16.40;99.90
3940;DHT22;1984;48.312;9.244;2022-07-29T04:02:35;16.40;99.90
3940;DHT22;1984;48.312;9.244;2022-07-29T04:05:01;16.40;99.90
3940;DHT22;1984;48.312;9.244;2022-07-29T04:07:27;16.30;99.90
3940;DHT22;1984;48.312;9.244;2022-07-29T04:09:53;16.20;99.90
3940;DHT22;1984;48.312;9.244;2022-07-29T04:12:18;16.20;99.90
3940;DHT22;1984;48.312;9.244;2022-07-29T04:14:46;16.20;99.90
3940;DHT22;1984;48.312;9.244;2022-07-29T04:17:11;16.10;99.90
3940;DHT22;1984;48.312;9.244;2022-07-29T04:19:37;16.20;99.90
3940;DHT22;1984;48.312;9.244;2022-07-29T04:22:02;16.20;99.90
3940;DHT22;1984;48.312;9.244;2022-07-29T04:24:28;16.20;99.90
3940;DHT22;1984;48.312;9.244;2022-07-29T04:26:54;16.20;99.90
3940;DHT22;1984;48.312;9.244;2022-07-29T04:29:19;16.30;99.90
3940;DHT22;1984;48.312;9.244;2022-07-29T04:31:45;16.20;99.90
3940;DHT22;1984;48.312;9.244;2022-07-29T04:34:11;16.20;99.90
3940;DHT22;1984;48.312;9.244;2022-07-29T04:36:37;16.20;99.90
3940;DHT22;1984;48.312;9.244;2022-07-29T04:39:03;16.30;99.90
3940;DHT22;1984;48.312;9.244;2022-07-29T04:41:29;16.10;99.90
3940;DHT22;1984;48.312;9.244;2022-07-29T04:43:54;16.00;99.90
3940;DHT22;1984;48.312;9.244;2022-07-29T04:46:20;15.90;99.90
3940;DHT22;1984;48.312;9.244;2022-07-29T04:48:46;16.00;99.90
3940;DHT22;1984;48.312;9.244;2022-07-29T04:51:13;16.10;99.90
3940;DHT22;1984;48.312;9.244;2022-07-29T04:53:38;16.10;99.90
3940;DHT22;1984;48.312;9.244;2022-07-29T04:56:04;16.10;99.90
3940;DHT22;1984;48.312;9.244;2022-07-29T04:58:29;16.10;99.90
3940;DHT22;1984;48.312;9.244;2022-07-29T05:00:55;16.20;99.90
3940;DHT22;1984;48.312;9.244;2022-07-29T05:03:21;16.20;99.90
3940;DHT22;1984;48.312;9.244;2022-07-29T05:05:46;16.30;99.90
3940;DHT22;1984;48.312;9.244;2022-07-29T05:08:12;16.40;99.90
3940;DHT22;1984;48.312;9.244;2022-07-29T05:10:37;16.30;99.90
3940;DHT22;1984;48.312;9.244;2022-07-29T05:13:06;16.20;99.90
3940;DHT22;1984;48.312;9.244;2022-07-29T05:15:34;16.10;99.90
3940;DHT22;1984;48.312;9.244;2022-07-29T05:18:00;16.00;99.90
3940;DHT22;1984;48.312;9.244;2022-07-29T05:20:26;15.90;99.90
3940;DHT22;1984;48.312;9.244;2022-07-29T05:22:57;15.90;99.90
3940;DHT22;1984;48.312;9.244;2022-07-29T05:25:23;15.90;99.90
3940;DHT22;1984;48.312;9.244;2022-07-29T05:27:48;16.00;99.90
3940;DHT22;1984;48.312;9.244;2022-07-29T05:30:14;16.10;99.90
3940;DHT22;1984;48.312;9.244;2022-07-29T05:32:40;16.20;99.90
3940;DHT22;1984;48.312;9.244;2022-07-29T05:35:06;16.30;99.90
3940;DHT22;1984;48.312;9.244;2022-07-29T05:37:31;16.40;99.90
3940;DHT22;1984;48.312;9.244;2022-07-29T05:39:57;16.50;99.90
3940;DHT22;1984;48.312;9.244;2022-07-29T05:42:23;16.60;99.90
3940;DHT22;1984;48.312;9.244;2022-07-29T05:44:49;16.70;99.90
3940;DHT22;1984;48.312;9.244;2022-07-29T05:47:14;16.70;99.90
3940;DHT22;1984;48.312;9.244;2022-07-29T05:49:40;16.80;99.90
3940;DHT22;1984;48.312;9.244;2022-07-29T05:52:05;16.90;99.90
3940;DHT22;1984;48.312;9.244;2022-07-29T05:54:31;17.00;99.90
3940;DHT22;1984;48.312;9.244;2022-07-29T05:56:56;17.00;99.90
3940;DHT22;1984;48.312;9.244;2022-07-29T05:59:22;17.10;99.90
3940;DHT22;1984;48.312;9.244;2022-07-29T06:01:47;17.20;99.90
3940;DHT22;1984;48.312;9.244;2022-07-29T06:04:13;17.20;99.90
3940;DHT22;1984;48.312;9.244;2022-07-29T06:06:38;17.30;99.90
3940;DHT22;1984;48.312;9.244;2022-07-29T06:09:04;17.40;99.90
3940;DHT22;1984;48.312;9.244;2022-07-29T06:11:29;17.60;99.90
3940;DHT22;1984;48.312;9.244;2022-07-29T06:13:55;17.70;99.90
3940;DHT22;1984;48.312;9.244;2022-07-29T06:16:20;17.80;99.90
3940;DHT22;1984;48.312;9.244;2022-07-29T06:18:46;18.00;99.90
3940;DHT22;1984;48.312;9.244;2022-07-29T06:21:11;18.30;99.90
3940;DHT22;1984;48.312;9.244;2022-07-29T06:23:38;18.40;99.90
3940;DHT22;1984;48.312;9.244;2022-07-29T06:26:04;18.60;99.90
3940;DHT22;1984;48.312;9.244;2022-07-29T06:28:30;18.70;99.90
3940;DHT22;1984;48.312;9.244;2022-07-29T06:30:55;18.80;99.90
3940;DHT22;1984;48.312;9.244;2022-07-29T06:33:21;18.90;99.90
3940;DHT22;1984;48.312;9.244;2022-07-29T06:35:46;19.00;99.90
3940;DHT22;1984;48.312;9.244;2022-07-29T06:38:13;19.10;99.90
3940;DHT22;1984;48.312;9.244;2022-07-29T06:40:45;19.40;99.90
3940;DHT22;1984;48.312;9.244;2022-07-29T06:43:37;19.60;99.90
3940;DHT22;1984;48.312;9.244;2022-07-29T06:46:06;19.60;99.90
3940;DHT22;1984;48.312;9.244;2022-07-29T06:48:32;19.70;99.90
3940;DHT22;1984;48.312;9.244;2022-07-29T06:50:58;19.80;99.90
3940;DHT22;1984;48.312;9.244;2022-07-29T06:53:24;19.90;99.90
3940;DHT22;1984;48.312;9.244;2022-07-29T06:55:50;20.10;99.90
3940;DHT22;1984;48.312;9.244;2022-07-29T06:58:16;20.40;99.90
3940;DHT22;1984;48.312;9.244;2022-07-29T07:00:44;20.60;99.90
3940;DHT22;1984;48.312;9.244;2022-07-29T07:03:10;20.90;99.90
3940;DHT22;1984;48.312;9.244;2022-07-29T07:05:36;21.50;99.90
3940;DHT22;1984;48.312;9.244;2022-07-29T07:08:03;22.20;99.90
3940;DHT22;1984;48.312;9.244;2022-07-29T07:10:28;23.20;99.90
3940;DHT22;1984;48.312;9.244;2022-07-29T07:12:54;23.70;99.90
3940;DHT22;1984;48.312;9.244;2022-07-29T07:15:20;23.90;99.90
3940;DHT22;1984;48.312;9.244;2022-07-29T07:17:49;24.00;99.90
3940;DHT22;1984;48.312;9.244;2022-07-29T07:20:15;24.00;99.90
3940;DHT22;1984;48.312;9.244;2022-07-29T07:22:41;24.20;99.90
3940;DHT22;1984;48.312;9.244;2022-07-29T07:25:07;24.40;99.90
3940;DHT22;1984;48.312;9.244;2022-07-29T07:27:32;24.50;99.90
3940;DHT22;1984;48.312;9.244;2022-07-29T07:29:58;24.40;99.90
3940;DHT22;1984;48.312;9.244;2022-07-29T07:32:23;24.30;99.90
3940;DHT22;1984;48.312;9.244;2022-07-29T07:34:49;24.40;99.90
3940;DHT22;1984;48.312;9.244;2022-07-29T07:37:15;24.40;99.90
3940;DHT22;1984;48.312;9.244;2022-07-29T07:39:41;24.50;99.90
3940;DHT22;1984;48.312;9.244;2022-07-29T07:42:06;25.00;99.90
3940;DHT22;1984;48.312;9.244;2022-07-29T07:44:32;25.90;99.90
3940;DHT22;1984;48.312;9.244;2022-07-29T07:46:57;26.70;99.90
3940;DHT22;1984;48.312;9.244;2022-07-29T07:49:23;27.60;99.90
3940;DHT22;1984;48.312;9.244;2022-07-29T07:51:49;28.60;99.90
3940;DHT22;1984;48.312;9.244;2022-07-29T07:54:14;28.90;99.90
3940;DHT22;1984;48.312;9.244;2022-07-29T07:56:40;28.90;99.90
3940;DHT22;1984;48.312;9.244;2022-07-29T07:59:06;29.30;99.90
3940;DHT22;1984;48.312;9.244;2022-07-29T08:01:31;29.40;99.90
3940;DHT22;1984;48.312;9.244;2022-07-29T08:03:57;29.40;99.90
3940;DHT22;1984;48.312;9.244;2022-07-29T08:06:22;29.40;99.90
3940;DHT22;1984;48.312;9.244;2022-07-29T08:08:50;29.20;99.90
3940;DHT22;1984;48.312;9.244;2022-07-29T08:11:16;29.00;99.90
3940;DHT22;1984;48.312;9.244;2022-07-29T08:13:42;29.20;99.90
3940;DHT22;1984;48.312;9.244;2022-07-29T08:16:08;29.40;99.30
3940;DHT22;1984;48.312;9.244;2022-07-29T08:18:38;30.10;98.90
3940;DHT22;1984;48.312;9.244;2022-07-29T08:21:04;30.90;97.40
3940;DHT22;1984;48.312;9.244;2022-07-29T08:23:30;31.60;93.00
3940;DHT22;1984;48.312;9.244;2022-07-29T08:26:07;32.20;92.10
3940;DHT22;1984;48.312;9.244;2022-07-29T08:28:39;32.50;90.70
3940;DHT22;1984;48.312;9.244;2022-07-29T08:31:05;32.90;87.50
3940;DHT22;1984;48.312;9.244;2022-07-29T08:33:31;32.90;81.20
3940;DHT22;1984;48.312;9.244;2022-07-29T08:35:56;32.30;83.20
3940;DHT22;1984;48.312;9.244;2022-07-29T08:38:22;31.50;84.20
3940;DHT22;1984;48.312;9.244;2022-07-29T08:40:47;30.90;87.10
3940;DHT22;1984;48.312;9.244;2022-07-29T08:43:13;30.50;87.40
3940;DHT22;1984;48.312;9.244;2022-07-29T08:45:45;29.90;88.80
3940;DHT22;1984;48.312;9.244;2022-07-29T08:48:15;29.40;87.20
3940;DHT22;1984;48.312;9.244;2022-07-29T08:50:42;28.70;87.80
3940;DHT22;1984;48.312;9.244;2022-07-29T08:53:11;28.10;90.50
3940;DHT22;1984;48.312;9.244;2022-07-29T08:55:46;27.60;92.10
3940;DHT22;1984;48.312;9.244;2022-07-29T08:58:13;27.20;93.20
3940;DHT22;1984;48.312;9.244;2022-07-29T09:00:42;26.80;94.50
3940;DHT22;1984;48.312;9.244;2022-07-29T09:03:09;26.50;95.40
3940;DHT22;1984;48.312;9.244;2022-07-29T09:05:37;26.10;96.60
3940;DHT22;1984;48.312;9.244;2022-07-29T09:08:06;25.90;97.00
3940;DHT22;1984;48.312;9.244;2022-07-29T09:10:32;25.80;97.50
3940;DHT22;1984;48.312;9.244;2022-07-29T09:12:58;25.60;98.10
3940;DHT22;1984;48.312;9.244;2022-07-29T09:15:23;25.50;99.10
3940;DHT22;1984;48.312;9.244;2022-07-29T09:17:49;25.40;99.60
3940;DHT22;1984;48.312;9.244;2022-07-29T09:20:17;25.50;99.40
3940;DHT22;1984;48.312;9.244;2022-07-29T09:22:44;26.00;99.90
3940;DHT22;1984;48.312;9.244;2022-07-29T09:25:14;26.40;99.90
3940;DHT22;1984;48.312;9.244;2022-07-29T09:27:40;26.80;99.90
3940;DHT22;1984;48.312;9.244;2022-07-29T09:30:13;27.30;99.90
3940;DHT22;1984;48.312;9.244;2022-07-29T09:32:55;28.10;99.90
3940;DHT22;1984;48.312;9.244;2022-07-29T09:35:23;28.70;99.90
3940;DHT22;1984;48.312;9.244;2022-07-29T09:37:49;28.80;98.90
3940;DHT22;1984;48.312;9.244;2022-07-29T09:40:17;28.60;98.40
3940;DHT22;1984;48.312;9.244;2022-07-29T09:42:44;28.50;98.20
3940;DHT22;1984;48.312;9.244;2022-07-29T09:45:10;28.90;98.40
3940;DHT22;1984;48.312;9.244;2022-07-29T09:47:47;29.90;97.30
3940;DHT22;1984;48.312;9.244;2022-07-29T09:50:15;31.50;95.20
3940;DHT22;1984;48.312;9.244;2022-07-29T09:52:48;33.00;92.60
3940;DHT22;1984;48.312;9.244;2022-07-29T09:55:14;34.10;90.10
3940;DHT22;1984;48.312;9.244;2022-07-29T09:57:40;34.80;80.00
3940;DHT22;1984;48.312;9.244;2022-07-29T10:00:18;34.20;78.50
3940;DHT22;1984;48.312;9.244;2022-07-29T10:02:46;34.10;78.90
3940;DHT22;1984;48.312;9.244;2022-07-29T10:05:23;34.20;80.10
3940;DHT22;1984;48.312;9.244;2022-07-29T10:07:54;33.80;80.50
3940;DHT22;1984;48.312;9.244;2022-07-29T10:12:53;32.40;81.60
3940;DHT22;1984;48.312;9.244;2022-07-29T10:15:21;31.20;84.20
3940;DHT22;1984;48.312;9.244;2022-07-29T10:17:47;30.00;86.30
3940;DHT22;1984;48.312;9.244;2022-07-29T10:20:14;29.20;90.10
3940;DHT22;1984;48.312;9.244;2022-07-29T10:22:40;28.60;91.10
3940;DHT22;1984;48.312;9.244;2022-07-29T10:25:08;28.30;91.30
3940;DHT22;1984;48.312;9.244;2022-07-29T10:27:35;28.00;91.50
3940;DHT22;1984;48.312;9.244;2022-07-29T10:30:01;27.80;92.40
3940;DHT22;1984;48.312;9.244;2022-07-29T10:35:19;27.70;94.30
3940;DHT22;1984;48.312;9.244;2022-07-29T10:43:53;27.20;94.80
3940;DHT22;1984;48.312;9.244;2022-07-29T10:46:20;26.90;95.20
3940;DHT22;1984;48.312;9.244;2022-07-29T10:51:52;26.20;96.20
3940;DHT22;1984;48.312;9.244;2022-07-29T10:54:19;25.80;97.10
3940;DHT22;1984;48.312;9.244;2022-07-29T10:59:51;24.90;99.30
3940;DHT22;1984;48.312;9.244;2022-07-29T11:05:06;24.50;99.80
3940;DHT22;1984;48.312;9.244;2022-07-29T11:07:32;24.40;99.90
3940;DHT22;1984;48.312;9.244;2022-07-29T11:15:13;24.70;99.90
3940;DHT22;1984;48.312;9.244;2022-07-29T11:20:50;25.40;98.90
3940;DHT22;1984;48.312;9.244;2022-07-29T11:23:28;26.30;98.20
3940;DHT22;1984;48.312;9.244;2022-07-29T11:26:13;27.20;96.00
3940;DHT22;1984;48.312;9.244;2022-07-29T11:34:20;28.40;93.50
3940;DHT22;1984;48.312;9.244;2022-07-29T11:44:56;28.10;92.60
3940;DHT22;1984;48.312;9.244;2022-07-29T11:47:23;28.40;93.10
3940;DHT22;1984;48.312;9.244;2022-07-29T11:49:50;28.80;91.80
3940;DHT22;1984;48.312;9.244;2022-07-29T11:52:17;28.50;92.60
3940;DHT22;1984;48.312;9.244;2022-07-29T11:54:43;28.20;91.20
3940;DHT22;1984;48.312;9.244;2022-07-29T11:57:09;27.70;92.10
3940;DHT22;1984;48.312;9.244;2022-07-29T11:59:42;27.20;90.80
3940;DHT22;1984;48.312;9.244;2022-07-29T12:02:08;27.00;89.70
3940;DHT22;1984;48.312;9.244;2022-07-29T12:04:47;27.00;90.00
3940;DHT22;1984;48.312;9.244;2022-07-29T12:07:13;27.10;87.20
3940;DHT22;1984;48.312;9.244;2022-07-29T12:09:39;27.00;86.80
3940;DHT22;1984;48.312;9.244;2022-07-29T12:12:04;27.00;89.00
3940;DHT22;1984;48.312;9.244;2022-07-29T12:14:32;26.90;89.20
3940;DHT22;1984;48.312;9.244;2022-07-29T12:16:59;26.80;90.40
3940;DHT22;1984;48.312;9.244;2022-07-29T12:19:25;26.80;89.20
3940;DHT22;1984;48.312;9.244;2022-07-29T12:21:55;26.80;90.00
3940;DHT22;1984;48.312;9.244;2022-07-29T12:24:24;27.00;90.30
3940;DHT22;1984;48.312;9.244;2022-07-29T12:26:54;27.00;87.50
3940;DHT22;1984;48.312;9.244;2022-07-29T12:29:20;27.10;87.60
3940;DHT22;1984;48.312;9.244;2022-07-29T12:31:46;27.40;88.30
3940;DHT22;1984;48.312;9.244;2022-07-29T12:34:13;27.70;88.00
3940;DHT22;1984;48.312;9.244;2022-07-29T12:36:41;27.90;84.40
3940;DHT22;1984;48.312;9.244;2022-07-29T12:39:07;27.70;84.50
3940;DHT22;1984;48.312;9.244;2022-07-29T12:41:34;27.80;84.80
3940;DHT22;1984;48.312;9.244;2022-07-29T12:44:00;27.70;80.70
3940;DHT22;1984;48.312;9.244;2022-07-29T12:46:26;27.50;79.40
3940;DHT22;1984;48.312;9.244;2022-07-29T12:48:53;27.50;81.30
3940;DHT22;1984;48.312;9.244;2022-07-29T12:51:31;27.40;81.20
3940;DHT22;1984;48.312;9.244;2022-07-29T12:54:12;27.30;83.40
3940;DHT22;1984;48.312;9.244;2022-07-29T12:56:43;27.20;83.20
3940;DHT22;1984;48.312;9.244;2022-07-29T12:59:17;27.30;85.70
3940;DHT22;1984;48.312;9.244;2022-07-29T13:01:44;27.30;85.10
3940;DHT22;1984;48.312;9.244;2022-07-29T13:04:10;27.20;87.40
3940;DHT22;1984;48.312;9.244;2022-07-29T13:06:44;27.10;88.60
3940;DHT22;1984;48.312;9.244;2022-07-29T13:09:11;26.90;90.90
3940;DHT22;1984;48.312;9.244;2022-07-29T13:11:40;26.70;91.30
3940;DHT22;1984;48.312;9.244;2022-07-29T13:14:08;26.50;91.80
3940;DHT22;1984;48.312;9.244;2022-07-29T13:16:35;26.40;91.80
3940;DHT22;1984;48.312;9.244;2022-07-29T13:19:04;26.20;92.10
3940;DHT22;1984;48.312;9.244;2022-07-29T13:21:30;26.10;92.50
3940;DHT22;1984;48.312;9.244;2022-07-29T13:23:56;26.00;92.80
3940;DHT22;1984;48.312;9.244;2022-07-29T13:26:21;26.00;92.00
3940;DHT22;1984;48.312;9.244;2022-07-29T13:28:47;26.10;92.10
3940;DHT22;1984;48.312;9.244;2022-07-29T13:31:12;25.90;91.60
3940;DHT22;1984;48.312;9.244;2022-07-29T13:33:38;25.80;91.50
3940;DHT22;1984;48.312;9.244;2022-07-29T13:36:03;25.60;91.40
3940;DHT22;1984;48.312;9.244;2022-07-29T13:38:29;25.40;91.10
3940;DHT22;1984;48.312;9.244;2022-07-29T13:40:54;25.30;91.30
3940;DHT22;1984;48.312;9.244;2022-07-29T13:43:20;25.20;91.40
3940;DHT22;1984;48.312;9.244;2022-07-29T13:45:45;25.00;91.60
3940;DHT22;1984;48.312;9.244;2022-07-29T13:48:11;25.00;91.90
3940;DHT22;1984;48.312;9.244;2022-07-29T13:50:36;24.90;91.60
3940;DHT22;1984;48.312;9.244;2022-07-29T13:53:02;24.80;91.80
3940;DHT22;1984;48.312;9.244;2022-07-29T13:55:27;24.70;91.80
3940;DHT22;1984;48.312;9.244;2022-07-29T13:57:53;24.70;91.90
3940;DHT22;1984;48.312;9.244;2022-07-29T14:00:19;24.60;91.50
3940;DHT22;1984;48.312;9.244;2022-07-29T14:02:44;24.50;91.30
3940;DHT22;1984;48.312;9.244;2022-07-29T14:05:10;24.50;90.70
3940;DHT22;1984;48.312;9.244;2022-07-29T14:07:37;24.50;90.90
3940;DHT22;1984;48.312;9.244;2022-07-29T14:10:04;24.50;90.70
3940;DHT22;1984;48.312;9.244;2022-07-29T14:12:30;24.40;90.70
3940;DHT22;1984;48.312;9.244;2022-07-29T14:14:55;24.30;90.20
3940;DHT22;1984;48.312;9.244;2022-07-29T14:17:21;24.30;90.60
3940;DHT22;1984;48.312;9.244;2022-07-29T14:19:47;24.30;91.40
3940;DHT22;1984;48.312;9.244;2022-07-29T14:22:12;24.20;92.80
3940;DHT22;1984;48.312;9.244;2022-07-29T14:24:38;24.20;93.70
3940;DHT22;1984;48.312;9.244;2022-07-29T14:27:04;24.20;94.10
3940;DHT22;1984;48.312;9.244;2022-07-29T14:29:30;24.20;94.50
3940;DHT22;1984;48.312;9.244;2022-07-29T14:31:56;24.30;94.50
3940;DHT22;1984;48.312;9.244;2022-07-29T14:34:21;24.30;94.40
3940;DHT22;1984;48.312;9.244;2022-07-29T14:36:47;24.30;94.40
3940;DHT22;1984;48.312;9.244;2022-07-29T14:39:12;24.30;94.50
3940;DHT22;1984;48.312;9.244;2022-07-29T14:41:38;24.30;94.80
3940;DHT22;1984;48.312;9.244;2022-07-29T14:44:03;24.40;94.50
3940;DHT22;1984;48.312;9.244;2022-07-29T14:46:29;24.40;94.30
3940;DHT22;1984;48.312;9.244;2022-07-29T14:48:55;24.40;94.70
3940;DHT22;1984;48.312;9.244;2022-07-29T14:51:20;24.30;95.40
3940;DHT22;1984;48.312;9.244;2022-07-29T14:53:46;24.30;95.80
3940;DHT22;1984;48.312;9.244;2022-07-29T14:56:11;24.20;96.40
3940;DHT22;1984;48.312;9.244;2022-07-29T14:58:37;24.20;96.30
3940;DHT22;1984;48.312;9.244;2022-07-29T15:01:02;24.20;96.30
3940;DHT22;1984;48.312;9.244;2022-07-29T15:03:28;24.10;96.10
3940;DHT22;1984;48.312;9.244;2022-07-29T15:05:54;24.00;96.40
3940;DHT22;1984;48.312;9.244;2022-07-29T15:08:20;24.00;96.40
3940;DHT22;1984;48.312;9.244;2022-07-29T15:10:46;23.90;96.80
3940;DHT22;1984;48.312;9.244;2022-07-29T15:13:11;23.90;96.30
3940;DHT22;1984;48.312;9.244;2022-07-29T15:15:37;23.90;96.70
3940;DHT22;1984;48.312;9.244;2022-07-29T15:18:02;23.90;96.90
3940;DHT22;1984;48.312;9.244;2022-07-29T15:20:28;23.80;96.80
3940;DHT22;1984;48.312;9.244;2022-07-29T15:22:54;23.80;97.10
3940;DHT22;1984;48.312;9.244;2022-07-29T15:25:24;23.70;97.40
3940;DHT22;1984;48.312;9.244;2022-07-29T15:27:50;23.70;97.30
3940;DHT22;1984;48.312;9.244;2022-07-29T15:30:16;23.70;97.40
3940;DHT22;1984;48.312;9.244;2022-07-29T15:32:43;23.60;97.70
3940;DHT22;1984;48.312;9.244;2022-07-29T15:35:08;23.50;97.40
3940;DHT22;1984;48.312;9.244;2022-07-29T15:37:36;23.50;97.10
3940;DHT22;1984;48.312;9.244;2022-07-29T15:40:02;23.40;96.90
3940;DHT22;1984;48.312;9.244;2022-07-29T15:42:28;23.50;96.90
3940;DHT22;1984;48.312;9.244;2022-07-29T15:44:53;23.40;98.10
3940;DHT22;1984;48.312;9.244;2022-07-29T15:47:20;23.30;99.70
3940;DHT22;1984;48.312;9.244;2022-07-29T15:49:46;23.30;99.90
3940;DHT22;1984;48.312;9.244;2022-07-29T15:52:11;23.30;99.90
3940;DHT22;1984;48.312;9.244;2022-07-29T15:54:38;23.20;99.90
3940;DHT22;1984;48.312;9.244;2022-07-29T15:57:06;23.00;99.90
3940;DHT22;1984;48.312;9.244;2022-07-29T15:59:32;22.90;99.90
3940;DHT22;1984;48.312;9.244;2022-07-29T16:01:59;22.80;99.90
3940;DHT22;1984;48.312;9.244;2022-07-29T16:04:25;22.80;99.90
3940;DHT22;1984;48.312;9.244;2022-07-29T16:06:50;22.80;99.90
3940;DHT22;1984;48.312;9.244;2022-07-29T16:09:16;22.70;99.90
3940;DHT22;1984;48.312;9.244;2022-07-29T16:11:43;22.80;99.90
3940;DHT22;1984;48.312;9.244;2022-07-29T16:14:09;22.80;99.90
3940;DHT22;1984;48.312;9.244;2022-07-29T16:16:36;22.70;99.90
3940;DHT22;1984;48.312;9.244;2022-07-29T16:19:02;22.70;99.90
3940;DHT22;1984;48.312;9.244;2022-07-29T16:21:28;22.80;99.90
3940;DHT22;1984;48.312;9.244;2022-07-29T16:23:56;22.80;99.90
3940;DHT22;1984;48.312;9.244;2022-07-29T16:26:22;22.80;99.90
3940;DHT22;1984;48.312;9.244;2022-07-29T16:28:48;22.90;99.90
3940;DHT22;1984;48.312;9.244;2022-07-29T16:31:13;22.90;99.90
3940;DHT22;1984;48.312;9.244;2022-07-29T16:33:39;22.90;99.90
3940;DHT22;1984;48.312;9.244;2022-07-29T16:36:05;23.00;99.90
3940;DHT22;1984;48.312;9.244;2022-07-29T16:38:30;23.00;99.90
3940;DHT22;1984;48.312;9.244;2022-07-29T16:40:56;23.00;99.90
3940;DHT22;1984;48.312;9.244;2022-07-29T16:43:21;23.00;99.90
3940;DHT22;1984;48.312;9.244;2022-07-29T16:45:47;23.00;99.90
3940;DHT22;1984;48.312;9.244;2022-07-29T16:48:13;22.90;99.90
3940;DHT22;1984;48.312;9.244;2022-07-29T16:50:39;22.80;99.90
3940;DHT22;1984;48.312;9.244;2022-07-29T16:53:05;22.70;99.90